Time;durP1;ratioP1;P1;durP2;ratioP2;P2;SDS_P1;SDS_P2;PMS_P1;PMS_P2;Temp;Humidity;BMP_temperature;BMP_pressure;BME280_temperature;BME280_humidity;BME280_pressure;Samples;Min_cycle;Max_cycle;Signal;HPM_P1;HPM_P2
2021/10/25 00:01:51;;;;;;;;;;;;;;;;;;5029105;28;19921;-79
2021/10/25 00:04:35;;;;;;;;;;;;;;;;;;5037622;28;19920;-77
2021/10/25 00:07:20;;;;;;;;;;;;;;;;;;5041993;28;19920;-77
2021/10/25 00:10:04;;;;;;;;;;;;;;;;;;5038728;28;19920;-77
2021/10/25 00:12:48;;;;;;;;;;;;;;;;;;5037009;28;19920;-78
2021/10/25 00:15:32;;;;;;;;;;;;;;;;;;5030176;28;19929;-77
2021/10/25 00:18:18;;;;;;;;;;;;;;;;;;5030841;28;20310;-76
2021/10/25 00:21:02;;;;;;;;;;;;;;;;;;5039461;28;19942;-78
2021/10/25 00:23:46;;;;;;;;;;;;;;;;;;5035673;28;19920;-78
2021/10/25 00:26:30;;;;;;;;;;;;;;;;;;5023486;28;19920;-77
2021/10/25 00:29:14;;;;;;;;;;;;;;;;;;5036451;28;19924;-76
2021/10/25 00:31:59;;;;;;;;;;;;;;;;;;5021846;28;19920;-77
2021/10/25 00:34:43;;;;;;;;;;;;;;;;;;5034571;28;19924;-78
2021/10/25 00:37:27;;;;;;;;;;;;;;;;;;5022875;28;19928;-77
2021/10/25 00:40:11;;;;;;;;;;;;;;;;;;5035569;28;20317;-79
2021/10/25 00:42:56;;;;;;;;;;;;;;;;;;5036305;28;20424;-78
2021/10/25 00:45:40;;;;;;;;;;;;;;;;;;5034131;28;19920;-76
2021/10/25 00:48:24;;;;;;;;;;;;;;;;;;5040910;28;19920;-76
2021/10/25 00:51:12;;;;;;;;;;;;;;;;;;5037780;28;19920;-76
2021/10/25 00:53:56;;;;;;;;;;;;;;;;;;5014769;28;19920;-76
2021/10/25 00:56:41;;;;;;;;;;;;;;;;;;5021051;28;20309;-76
2021/10/25 00:59:25;;;;;;;;;;;;;;;;;;5038514;28;19920;-77
2021/10/25 01:02:10;;;;;;;;;;;;;;;;;;5054526;28;19920;-77
2021/10/25 01:04:55;;;;;;;;;;;;;;;;;;5040695;28;19935;-76
2021/10/25 01:07:40;;;;;;;;;;;;;;;;;;5018312;28;19920;-76
2021/10/25 01:10:24;;;;;;;;;;;;;;;;;;5016206;28;20293;-77
2021/10/25 01:13:08;;;;;;;;;;;;;;;;;;5032403;28;19923;-77
2021/10/25 01:15:52;;;;;;;;;;;;;;;;;;5042310;28;19928;-77
2021/10/25 01:18:36;;;;;;;;;;;;;;;;;;5005431;28;20310;-78
2021/10/25 01:21:20;;;;;;;;;;;;;;;;;;5029305;28;20413;-79
2021/10/25 01:24:05;;;;;;;;;;;;;;;;;;5034612;28;19920;-77
2021/10/25 01:26:49;;;;;;;;;;;;;;;;;;5026791;28;19920;-81
2021/10/25 01:29:33;;;;;;;;;;;;;;;;;;5046945;28;19921;-79
2021/10/25 01:32:18;;;;;;;;;;;;;;;;;;5023824;28;20309;-79
2021/10/25 01:35:02;;;;;;;;;;;;;;;;;;5029415;28;19944;-79
2021/10/25 01:37:48;;;;;;;;;;;;;;;;;;5026496;28;19920;-79
2021/10/25 01:40:33;;;;;;;;;;;;;;;;;;5026165;28;20309;-78
2021/10/25 01:43:20;;;;;;;;;;;;;;;;;;5031392;28;19920;-79
2021/10/25 01:46:06;;;;;;;;;;;;;;;;;;5024970;28;19920;-79
2021/10/25 01:48:51;;;;;;;;;;;;;;;;;;5027894;28;19929;-78
2021/10/25 01:51:35;;;;;;;;;;;;;;;;;;5030471;28;20406;-78
2021/10/25 01:54:20;;;;;;;;;;;;;;;;;;5032495;28;20452;-78
2021/10/25 01:57:08;;;;;;;;;;;;;;;;;;5031979;28;19924;-78
2021/10/25 01:59:52;;;;;;;;;;;;;;;;;;5010367;28;19939;-78
2021/10/25 02:02:42;;;;;;;;;;;;;;;;;;5032924;28;19940;-79
2021/10/25 02:05:44;;;;;;;;;;;;;;;;;;5026786;28;19920;-78
2021/10/25 02:08:30;;;;;;;;;;;;;;;;;;5015319;28;19981;-79
2021/10/25 02:11:17;;;;;;;;;;;;;;;;;;5013708;28;19924;-77
2021/10/25 02:14:11;;;;;;;;;;;;;;;;;;5034859;28;19920;-77
2021/10/25 02:16:56;;;;;;;;;;;;;;;;;;5016220;28;19925;-77
2021/10/25 02:19:41;;;;;;;;;;;;;;;;;;5029349;28;20083;-79
2021/10/25 02:22:31;;;;;;;;;;;;;;;;;;5017579;28;19944;-79
2021/10/25 02:25:15;;;;;;;;;;;;;;;;;;5043471;28;19928;-79
2021/10/25 02:27:59;;;;;;;;;;;;;;;;;;5024829;28;19920;-79
2021/10/25 02:30:43;;;;;;;;;;;;;;;;;;5033430;28;20309;-78
2021/10/25 02:33:28;;;;;;;;;;;;;;;;;;5000787;28;19921;-79
2021/10/25 02:36:12;;;;;;;;;;;;;;;;;;5019465;28;19932;-76
2021/10/25 02:38:58;;;;;;;;;;;;;;;;;;5019641;28;20294;-77
2021/10/25 02:41:42;;;;;;;;;;;;;;;;;;5019419;28;19923;-77
2021/10/25 02:44:27;;;;;;;;;;;;;;;;;;5013706;28;20389;-76
2021/10/25 02:47:11;;;;;;;;;;;;;;;;;;5051904;28;19920;-76
2021/10/25 02:49:56;;;;;;;;;;;;;;;;;;5016048;28;19920;-77
2021/10/25 02:52:45;;;;;;;;;;;;;;;;;;5041025;28;19920;-76
2021/10/25 02:55:29;;;;;;;;;;;;;;;;;;5053211;28;19924;-77
2021/10/25 02:58:16;;;;;;;;;;;;;;;;;;5030335;28;19921;-76
2021/10/25 03:01:06;;;;;;;;;;;;;;;;;;5049352;28;19920;-77
2021/10/25 03:03:50;;;;;;;;;;;;;;;;;;5020737;28;19981;-78
2021/10/25 03:06:40;;;;;;;;;;;;;;;;;;5042418;28;20404;-79
2021/10/25 03:09:24;;;;;;;;;;;;;;;;;;5028800;28;20430;-77
2021/10/25 03:12:08;;;;;;;;;;;;;;;;;;5049057;28;19936;-78
2021/10/25 03:14:53;;;;;;;;;;;;;;;;;;5039909;28;19920;-78
2021/10/25 03:17:37;;;;;;;;;;;;;;;;;;5036194;28;19925;-76
2021/10/25 03:20:32;;;;;;;;;;;;;;;;;;5015916;28;19925;-76
2021/10/25 03:23:16;;;;;;;;;;;;;;;;;;5019526;28;20338;-76
2021/10/25 03:26:01;;;;;;;;;;;;;;;;;;5030822;28;19936;-76
2021/10/25 03:28:45;;;;;;;;;;;;;;;;;;5038296;28;19920;-77
2021/10/25 03:31:29;;;;;;;;;;;;;;;;;;5018080;28;19921;-77
2021/10/25 03:34:13;;;;;;;;;;;;;;;;;;5017318;28;19920;-77
2021/10/25 03:36:58;;;;;;;;;;;;;;;;;;5027817;28;20305;-76
2021/10/25 03:39:46;;;;;;;;;;;;;;;;;;5060413;22;19924;-82
2021/10/25 03:42:52;;;;;;;;;;;;;;;;;;5055647;28;19920;-81
2021/10/25 03:45:41;;;;;;;;;;;;;;;;;;5046238;28;19920;-82
2021/10/25 03:48:30;;;;;;;;;;;;;;;;;;5050282;28;19923;-80
2021/10/25 03:51:16;;;;;;;;;;;;;;;;;;5045042;28;20402;-81
2021/10/25 03:59:57;;;;;;;;;;;;;;;;;;5061399;28;20400;-80
2021/10/25 04:27:58;;;;;;;;;;;;;;;;;;5057872;28;20305;-82
2021/10/25 04:30:42;;;;;;;;;;;;;;;;;;5053891;28;20301;-81
2021/10/25 04:33:26;;;;;;;;;;;;;;;;;;5031818;28;20408;-83
2021/10/25 04:36:31;;;;;;;;;;;;;;;;;;5017919;28;19928;-81
2021/10/25 04:39:21;;;;;;;;;;;;;;;;;;5033607;28;20293;-80
2021/10/25 04:42:05;;;;;;;;;;;;;;;;;;5043878;28;19939;-82
2021/10/25 04:44:49;;;;;;;;;;;;;;;;;;5037898;28;19920;-82
2021/10/25 04:47:34;;;;;;;;;;;;;;;;;;5070350;28;19940;-81
2021/10/25 04:50:23;;;;;;;;;;;;;;;;;;5052440;28;20432;-80
2021/10/25 04:53:42;;;;;;;;;;;;;;;;;;5028928;28;20436;-79
2021/10/25 04:56:27;;;;;;;;;;;;;;;;;;5034092;28;19924;-80
2021/10/25 04:59:11;;;;;;;;;;;;;;;;;;5040126;28;19936;-79
2021/10/25 05:01:55;;;;;;;;;;;;;;;;;;5050400;28;19927;-79
2021/10/25 05:04:39;;;;;;;;;;;;;;;;;;5034178;28;20404;-78
2021/10/25 05:07:24;;;;;;;;;;;;;;;;;;5042899;28;19924;-79
2021/10/25 05:10:09;;;;;;;;;;;;;;;;;;5053858;28;19924;-81
2021/10/25 05:12:53;;;;;;;;;;;;;;;;;;5041140;28;20288;-78
2021/10/25 05:15:38;;;;;;;;;;;;;;;;;;5054702;28;19936;-79
2021/10/25 05:18:22;;;;;;;;;;;;;;;;;;5058826;28;19935;-80
2021/10/25 05:21:06;;;;;;;;;;;;;;;;;;5038685;28;19920;-81
2021/10/25 05:23:51;;;;;;;;;;;;;;;;;;5055420;28;19920;-80
2021/10/25 05:26:35;;;;;;;;;;;;;;;;;;5053942;28;20289;-79
2021/10/25 05:29:22;;;;;;;;;;;;;;;;;;5058271;28;19927;-81
2021/10/25 05:32:06;;;;;;;;;;;;;;;;;;5044445;28;20398;-82
2021/10/25 05:34:52;;;;;;;;;;;;;;;;;;5048726;28;19920;-83
2021/10/25 05:37:36;;;;;;;;;;;;;;;;;;5054807;28;19924;-83
2021/10/25 05:40:20;;;;;;;;;;;;;;;;;;5040576;28;19924;-82
2021/10/25 05:43:10;;;;;;;;;;;;;;;;;;5055587;28;19920;-82
2021/10/25 05:45:54;;;;;;;;;;;;;;;;;;5030842;28;20307;-82
2021/10/25 05:48:41;;;;;;;;;;;;;;;;;;5034608;28;19920;-82
2021/10/25 05:51:27;;;;;;;;;;;;;;;;;;5056076;28;19920;-82
2021/10/25 05:54:11;;;;;;;;;;;;;;;;;;5045478;28;19920;-83
2021/10/25 05:56:56;;;;;;;;;;;;;;;;;;5057370;28;19924;-82
2021/10/25 05:59:41;;;;;;;;;;;;;;;;;;5041997;28;19920;-81
2021/10/25 06:02:29;;;;;;;;;;;;;;;;;;5060436;28;19920;-80
2021/10/25 06:05:25;;;;;;;;;;;;;;;;;;5036607;28;19936;-81
2021/10/25 06:08:14;;;;;;;;;;;;;;;;;;5050351;28;20400;-79
2021/10/25 06:10:59;;;;;;;;;;;;;;;;;;5052614;28;19923;-79
2021/10/25 06:13:44;;;;;;;;;;;;;;;;;;5055869;28;19924;-81
2021/10/25 06:16:40;;;;;;;;;;;;;;;;;;5055790;28;20392;-81
2021/10/25 06:19:24;;;;;;;;;;;;;;;;;;5060163;28;19935;-80
2021/10/25 06:22:10;;;;;;;;;;;;;;;;;;5044507;28;19919;-81
2021/10/25 06:24:54;;;;;;;;;;;;;;;;;;5043549;28;19924;-81
2021/10/25 06:27:38;;;;;;;;;;;;;;;;;;5040727;28;20293;-80
2021/10/25 06:30:22;;;;;;;;;;;;;;;;;;5058635;28;19936;-80
2021/10/25 06:33:10;;;;;;;;;;;;;;;;;;5043913;28;19924;-80
2021/10/25 06:36:19;;;;;;;;;;;;;;;;;;5055659;28;19924;-80
2021/10/25 06:39:12;;;;;;;;;;;;;;;;;;5054658;28;19920;-80
2021/10/25 06:42:03;;;;;;;;;;;;;;;;;;5054666;28;19924;-80
2021/10/25 06:47:41;;;;;;;;;;;;;;;;;;5056610;28;19987;-80
2021/10/25 06:50:25;;;;;;;;;;;;;;;;;;5047040;28;19920;-80
2021/10/25 06:53:10;;;;;;;;;;;;;;;;;;5044708;28;19921;-80
2021/10/25 06:56:17;;;;;;;;;;;;;;;;;;5055328;28;19924;-80
2021/10/25 06:59:01;;;;;;;;;;;;;;;;;;5045902;28;20400;-80
2021/10/25 07:01:47;;;;;;;;;;;;;;;;;;5040789;28;19924;-81
2021/10/25 07:04:31;;;;;;;;;;;;;;;;;;5042031;28;19920;-80
2021/10/25 07:07:18;;;;;;;;;;;;;;;;;;5045704;28;20293;-80
2021/10/25 07:10:03;;;;;;;;;;;;;;;;;;5058160;28;19920;-81
2021/10/25 07:12:49;;;;;;;;;;;;;;;;;;5056385;28;19979;-80
2021/10/25 07:15:37;;;;;;;;;;;;;;;;;;5060273;28;20292;-81
2021/10/25 08:08:30;;;;;;;;;;;;;;;;;;5061224;28;19923;-80
2021/10/25 08:11:16;;;;;;;;;;;;;;;;;;5044841;28;19920;-81
2021/10/25 08:14:12;;;;;;;;;;;;;;;;;;5050257;28;19920;-81
2021/10/25 08:16:57;;;;;;;;;;;;;;;;;;5045772;28;19924;-80
2021/10/25 08:19:41;;;;;;;;;;;;;;;;;;5044417;28;19936;-81
2021/10/25 08:22:25;;;;;;;;;;;;;;;;;;5062038;28;20296;-80
2021/10/25 08:25:09;;;;;;;;;;;;;;;;;;5060249;28;20400;-80
2021/10/25 08:28:17;;;;;;;;;;;;;;;;;;5056827;28;19936;-80
2021/10/25 08:31:02;;;;;;;;;;;;;;;;;;5045678;28;19920;-81
2021/10/25 08:34:15;;;;;;;;;;;;;;;;;;5058852;28;19935;-80
2021/10/25 08:39:53;;;;;;;;;;;;;;;;;;5059448;28;19920;-80
2021/10/25 08:42:41;;;;;;;;;;;;;;;;;;5043717;28;20305;-80
2021/10/25 08:45:31;;;;;;;;;;;;;;;;;;5061324;28;19936;-80
2021/10/25 08:48:18;;;;;;;;;;;;;;;;;;5059598;28;19919;-79
2021/10/25 08:51:02;;;;;;;;;;;;;;;;;;5056706;28;19928;-81
2021/10/25 08:53:46;;;;;;;;;;;;;;;;;;5061231;28;19920;-80
2021/10/25 08:56:31;;;;;;;;;;;;;;;;;;5059484;28;19991;-81
2021/10/25 08:59:29;;;;;;;;;;;;;;;;;;5044486;28;19920;-80
2021/10/25 09:02:14;;;;;;;;;;;;;;;;;;5060802;28;19924;-80
2021/10/25 09:05:20;;;;;;;;;;;;;;;;;;5054737;28;19920;-81
2021/10/25 09:08:05;;;;;;;;;;;;;;;;;;5047790;28;19935;-80
2021/10/25 09:10:57;;;;;;;;;;;;;;;;;;5058934;28;19920;-80
2021/10/25 09:13:41;;;;;;;;;;;;;;;;;;5057741;28;19920;-81
2021/10/25 09:16:26;;;;;;;;;;;;;;;;;;5061267;28;19924;-79
2021/10/25 09:19:29;;;;;;;;;;;;;;;;;;5058322;28;19919;-79
2021/10/25 09:22:13;;;;;;;;;;;;;;;;;;5057013;28;19920;-79
2021/10/25 09:24:57;;;;;;;;;;;;;;;;;;5048431;28;20381;-80
2021/10/25 09:28:08;;;;;;;;;;;;;;;;;;5059212;28;19920;-80
2021/10/25 09:30:58;;;;;;;;;;;;;;;;;;5058478;28;20408;-81
2021/10/25 09:33:42;;;;;;;;;;;;;;;;;;5045738;28;19920;-80
2021/10/25 09:36:40;;;;;;;;;;;;;;;;;;5057572;28;19924;-80
2021/10/25 09:39:37;;;;;;;;;;;;;;;;;;5061657;28;19919;-79
2021/10/25 09:51:32;;;;;;;;;;;;;;;;;;5054193;28;20403;-60
2021/10/25 09:54:20;;;;;;;;;;;;;;;;;;5041028;28;20295;-59
2021/10/25 09:57:14;;;;;;;;;;;;;;;;;;5048110;28;20403;-59
2021/10/25 10:00:07;;;;;;;;;;;;;;;;;;5047081;28;19920;-59
2021/10/25 10:03:00;;;;;;;;;;;;;;;;;;5046965;28;19920;-58
2021/10/25 10:06:07;;;;;;;;;;;;;;;;;;5033562;28;19924;-59
2021/10/25 10:08:57;;;;;;;;;;;;;;;;;;5045220;28;20398;-58
2021/10/25 10:11:41;;;;;;;;;;;;;;;;;;5038309;28;19920;-59
2021/10/25 10:14:27;;;;;;;;;;;;;;;;;;5017123;28;20203;-59
2021/10/25 10:17:13;;;;;;;;;;;;;;;;;;5020604;28;19924;-58
2021/10/25 10:19:57;;;;;;;;;;;;;;;;;;5019047;28;20296;-58
2021/10/25 10:22:58;;;;;;;;;;;;;;;;;;5021945;28;19932;-58
2021/10/25 10:25:50;;;;;;;;;;;;;;;;;;5019428;28;19920;-58
2021/10/25 10:28:36;;;;;;;;;;;;;;;;;;5018281;28;19920;-58
2021/10/25 10:31:21;;;;;;;;;;;;;;;;;;5031995;28;20295;-58
2021/10/25 10:34:28;;;;;;;;;;;;;;;;;;5043166;28;19923;-58
2021/10/25 10:37:15;;;;;;;;;;;;;;;;;;5025026;28;19932;-59
2021/10/25 10:40:00;;;;;;;;;;;;;;;;;;5039695;28;19935;-58
2021/10/25 10:43:08;;;;;;;;;;;;;;;;;;5020015;28;19952;-58
2021/10/25 10:45:52;;;;;;;;;;;;;;;;;;5048165;28;19920;-59
2021/10/25 10:48:39;;;;;;;;;;;;;;;;;;5039757;28;19936;-59
2021/10/25 10:51:23;;;;;;;;;;;;;;;;;;5052186;28;19936;-58
2021/10/25 10:54:21;;;;;;;;;;;;;;;;;;5051441;28;19921;-58
2021/10/25 10:57:21;;;;;;;;;;;;;;;;;;5051522;28;19924;-59
2021/10/25 11:00:05;;;;;;;;;;;;;;;;;;5051779;28;20280;-58
2021/10/25 11:02:50;;;;;;;;;;;;;;;;;;5051916;28;19920;-59
2021/10/25 11:05:34;;;;;;;;;;;;;;;;;;5049703;28;19919;-58
2021/10/25 11:08:21;;;;;;;;;;;;;;;;;;5045760;28;19995;-58
2021/10/25 11:11:05;;;;;;;;;;;;;;;;;;5053663;28;19920;-58
2021/10/25 11:13:53;;;;;;;;;;;;;;;;;;5057025;28;20363;-58
2021/10/25 11:16:44;;;;;;;;;;;;;;;;;;5045187;28;19928;-58
2021/10/25 11:19:28;;;;;;;;;;;;;;;;;;5046174;28;19924;-58
2021/10/25 11:22:13;;;;;;;;;;;;;;;;;;5057052;28;19919;-58
2021/10/25 11:24:57;;;;;;;;;;;;;;;;;;5054637;28;19920;-58
2021/10/25 11:27:42;;;;;;;;;;;;;;;;;;5054396;28;19920;-58
2021/10/25 11:30:26;;;;;;;;;;;;;;;;;;5049139;28;20395;-58
2021/10/25 11:33:11;;;;;;;;;;;;;;;;;;5048410;28;19919;-58
2021/10/25 11:35:55;;;;;;;;;;;;;;;;;;5052031;28;19924;-59
2021/10/25 11:38:40;;;;;;;;;;;;;;;;;;5048850;28;19924;-59
2021/10/25 11:41:24;;;;;;;;;;;;;;;;;;5052098;28;19924;-58
2021/10/25 11:44:09;;;;;;;;;;;;;;;;;;5055810;28;19939;-59
2021/10/25 11:46:54;;;;;;;;;;;;;;;;;;5053584;28;20219;-58
2021/10/25 11:49:40;;;;;;;;;;;;;;;;;;5053669;28;19924;-59
2021/10/25 11:52:24;;;;;;;;;;;;;;;;;;5053397;28;19920;-58
2021/10/25 11:55:08;;;;;;;;;;;;;;;;;;5055966;28;19920;-58
2021/10/25 11:57:53;;;;;;;;;;;;;;;;;;5051204;28;19924;-58
2021/10/25 12:00:43;;;;;;;;;;;;;;;;;;5056375;28;20285;-58
2021/10/25 12:03:37;;;;;;;;;;;;;;;;;;5036861;28;19920;-59
2021/10/25 12:06:21;;;;;;;;;;;;;;;;;;5041810;28;20288;-58
2021/10/25 12:09:06;;;;;;;;;;;;;;;;;;5052568;28;19939;-58
2021/10/25 12:14:37;;;;;;;;;;;;;;;;;;5051898;28;19920;-58
2021/10/25 12:17:25;;;;;;;;;;;;;;;;;;5040615;28;19924;-58
2021/10/25 12:20:09;;;;;;;;;;;;;;;;;;5044573;28;20446;-58
2021/10/25 12:22:53;;;;;;;;;;;;;;;;;;5050749;28;20399;-58
2021/10/25 12:25:38;;;;;;;;;;;;;;;;;;5053591;28;19920;-58
2021/10/25 12:28:23;;;;;;;;;;;;;;;;;;5048051;28;19920;-58
2021/10/25 12:31:08;;;;;;;;;;;;;;;;;;5053379;28;19920;-58
2021/10/25 12:33:52;;;;;;;;;;;;;;;;;;5050588;28;20299;-58
2021/10/25 12:36:36;;;;;;;;;;;;;;;;;;5047302;28;19940;-58
2021/10/25 12:39:21;;;;;;;;;;;;;;;;;;5051328;28;20315;-59
2021/10/25 12:42:05;;;;;;;;;;;;;;;;;;5050618;28;19928;-58
2021/10/25 12:44:53;;;;;;;;;;;;;;;;;;5052034;28;19920;-59
2021/10/25 12:47:37;;;;;;;;;;;;;;;;;;5043867;28;19920;-59
2021/10/25 12:50:21;;;;;;;;;;;;;;;;;;5037586;28;19920;-57
2021/10/25 12:53:05;;;;;;;;;;;;;;;;;;5042173;28;20300;-58
2021/10/25 12:55:49;;;;;;;;;;;;;;;;;;5045996;28;19920;-58
2021/10/25 12:58:33;;;;;;;;;;;;;;;;;;5047680;28;19991;-59
2021/10/25 13:01:18;;;;;;;;;;;;;;;;;;5052112;28;19920;-59
2021/10/25 13:04:02;;;;;;;;;;;;;;;;;;5048412;28;19920;-57
2021/10/25 13:06:46;;;;;;;;;;;;;;;;;;5051465;28;19920;-58
2021/10/25 13:09:31;;;;;;;;;;;;;;;;;;5052215;28;20394;-58
2021/10/25 13:12:15;;;;;;;;;;;;;;;;;;5052480;28;19936;-58
2021/10/25 13:15:00;;;;;;;;;;;;;;;;;;5035450;28;19920;-58
2021/10/25 13:17:44;;;;;;;;;;;;;;;;;;5041341;28;19924;-58
2021/10/25 13:20:29;;;;;;;;;;;;;;;;;;5043087;28;20387;-58
2021/10/25 13:23:14;;;;;;;;;;;;;;;;;;5052479;28;20383;-58
2021/10/25 13:25:58;;;;;;;;;;;;;;;;;;5052754;28;19924;-58
2021/10/25 13:28:42;;;;;;;;;;;;;;;;;;5051120;28;19920;-58
2021/10/25 13:31:27;;;;;;;;;;;;;;;;;;5052936;28;19920;-58
2021/10/25 13:34:10;;;;;;;;;;;;;;;;;;5036683;28;19987;-58
2021/10/25 13:36:55;;;;;;;;;;;;;;;;;;5052169;28;19924;-58
2021/10/25 13:39:39;;;;;;;;;;;;;;;;;;5050498;28;19920;-58
2021/10/25 13:42:23;;;;;;;;;;;;;;;;;;5045370;28;20296;-59
2021/10/25 13:45:07;;;;;;;;;;;;;;;;;;5045397;28;19920;-58
2021/10/25 13:47:51;;;;;;;;;;;;;;;;;;5048820;28;19920;-59
2021/10/25 13:50:35;;;;;;;;;;;;;;;;;;5050265;28;19928;-58
2021/10/25 13:53:20;;;;;;;;;;;;;;;;;;5043616;28;19920;-59
2021/10/25 13:56:04;;;;;;;;;;;;;;;;;;5032357;28;19920;-58
2021/10/25 13:58:49;;;;;;;;;;;;;;;;;;5043292;28;19920;-58
2021/10/25 14:01:33;;;;;;;;;;;;;;;;;;5042734;28;19920;-58
2021/10/25 14:04:20;;;;;;;;;;;;;;;;;;5052690;28;19976;-57
2021/10/25 14:07:06;;;;;;;;;;;;;;;;;;5048625;28;19931;-59
2021/10/25 14:09:56;;;;;;;;;;;;;;;;;;5038422;28;19920;-58
2021/10/25 14:12:41;;;;;;;;;;;;;;;;;;5042956;28;19920;-58
2021/10/25 14:15:28;;;;;;;;;;;;;;;;;;5055025;28;19920;-58
2021/10/25 14:18:12;;;;;;;;;;;;;;;;;;5047161;28;19927;-58
2021/10/25 14:20:56;;;;;;;;;;;;;;;;;;5048261;28;20303;-58
2021/10/25 14:23:40;;;;;;;;;;;;;;;;;;5050677;28;20280;-58
2021/10/25 14:26:25;;;;;;;;;;;;;;;;;;5051906;28;19920;-58
2021/10/25 14:29:09;;;;;;;;;;;;;;;;;;5046941;28;19924;-58
2021/10/25 14:31:53;;;;;;;;;;;;;;;;;;5048499;28;19920;-58
2021/10/25 14:34:37;;;;;;;;;;;;;;;;;;5035302;28;19920;-58
2021/10/25 14:37:28;;;;;;;;;;;;;;;;;;5032014;28;20395;-59
2021/10/25 14:40:13;;;;;;;;;;;;;;;;;;5038010;28;20384;-58
2021/10/25 14:43:00;;;;;;;;;;;;;;;;;;5048796;28;19944;-57
2021/10/25 14:45:51;;;;;;;;;;;;;;;;;;5044575;28;19920;-58
2021/10/25 14:55:06;;;;;;;;;;;;;;;;;;5056015;28;19928;-58
2021/10/25 14:57:39;;;;;;;;;;;;;;;;;;5058528;28;19932;-58
2021/10/25 15:00:23;;;;;;;;;;;;;;;;;;5040645;28;20394;-57
2021/10/25 15:03:07;;;;;;;;;;;;;;;;;;5055607;28;19936;-58
2021/10/25 15:05:53;;;;;;;;;;;;;;;;;;5054206;28;19921;-58
2021/10/25 15:08:38;;;;;;;;;;;;;;;;;;5051534;28;19970;-58
2021/10/25 15:11:23;;;;;;;;;;;;;;;;;;5059699;28;19920;-58
2021/10/25 15:14:08;;;;;;;;;;;;;;;;;;5054688;28;19924;-58
2021/10/25 15:16:52;;;;;;;;;;;;;;;;;;5054563;28;20287;-58
2021/10/25 15:19:36;;;;;;;;;;;;;;;;;;5055182;28;19920;-58
2021/10/25 15:22:21;;;;;;;;;;;;;;;;;;5039943;28;19953;-58
2021/10/25 15:25:06;;;;;;;;;;;;;;;;;;5055102;28;19919;-58
2021/10/25 15:27:54;;;;;;;;;;;;;;;;;;5052944;28;19924;-58
2021/10/25 15:30:38;;;;;;;;;;;;;;;;;;5054829;28;19924;-59
2021/10/25 15:33:24;;;;;;;;;;;;;;;;;;5046317;28;19920;-59
2021/10/25 15:36:08;;;;;;;;;;;;;;;;;;5054458;28;20129;-58
2021/10/25 15:38:55;;;;;;;;;;;;;;;;;;5054992;28;19920;-59
2021/10/25 15:41:39;;;;;;;;;;;;;;;;;;5052034;28;19944;-59
2021/10/25 15:44:23;;;;;;;;;;;;;;;;;;5051515;28;19920;-59
2021/10/25 15:47:07;;;;;;;;;;;;;;;;;;5049999;28;19920;-58
2021/10/25 15:49:51;;;;;;;;;;;;;;;;;;5052792;28;19920;-58
2021/10/25 15:52:35;;;;;;;;;;;;;;;;;;5047395;28;19920;-58
2021/10/25 15:55:19;;;;;;;;;;;;;;;;;;5049219;28;19984;-57
2021/10/25 15:58:04;;;;;;;;;;;;;;;;;;5049269;28;19924;-58
2021/10/25 16:00:48;;;;;;;;;;;;;;;;;;5048696;28;19920;-58
2021/10/25 16:03:32;;;;;;;;;;;;;;;;;;5051869;28;19920;-58
2021/10/25 16:06:16;;;;;;;;;;;;;;;;;;5050770;28;19928;-58
2021/10/25 16:09:00;;;;;;;;;;;;;;;;;;5042012;28;19920;-57
2021/10/25 16:11:45;;;;;;;;;;;;;;;;;;5049542;28;19983;-59
2021/10/25 16:14:29;;;;;;;;;;;;;;;;;;5046751;28;19924;-58
2021/10/25 16:17:13;;;;;;;;;;;;;;;;;;5073617;22;19935;-80
2021/10/25 16:20:00;;;;;;;;;;;;;;;;;;5085310;28;19936;-80
2021/10/25 16:22:45;;;;;;;;;;;;;;;;;;5094552;28;19926;-80
2021/10/25 16:25:29;;;;;;;;;;;;;;;;;;5098463;28;20296;-80
2021/10/25 16:28:13;;;;;;;;;;;;;;;;;;5068142;28;19928;-79
2021/10/25 16:30:57;;;;;;;;;;;;;;;;;;5071062;28;20396;-80
2021/10/25 16:33:42;;;;;;;;;;;;;;;;;;5090873;28;19930;-79
2021/10/25 16:36:26;;;;;;;;;;;;;;;;;;5084107;28;20412;-80
2021/10/25 16:39:11;;;;;;;;;;;;;;;;;;5087590;28;19920;-77
2021/10/25 16:41:55;;;;;;;;;;;;;;;;;;5080689;28;19945;-79
2021/10/25 16:44:41;;;;;;;;;;;;;;;;;;5077326;28;19935;-78
2021/10/25 16:47:25;;;;;;;;;;;;;;;;;;5069421;28;20309;-79
2021/10/25 16:50:10;;;;;;;;;;;;;;;;;;5085345;28;19920;-79
2021/10/25 17:04:38;;;;;;;;;;;;;;;;;;5084804;28;20296;-78
2021/10/25 17:10:25;;;;;;;;;;;;;;;;;;5091339;28;19919;-79
2021/10/25 17:13:09;;;;;;;;;;;;;;;;;;5085602;28;19923;-80
2021/10/25 17:15:53;;;;;;;;;;;;;;;;;;5072230;28;19927;-79
2021/10/25 17:18:38;;;;;;;;;;;;;;;;;;5066120;28;20411;-79
2021/10/25 17:21:26;;;;;;;;;;;;;;;;;;5073737;28;19924;-79
2021/10/25 17:24:11;;;;;;;;;;;;;;;;;;5090961;28;19920;-79
2021/10/25 17:26:55;;;;;;;;;;;;;;;;;;5089000;28;19919;-79
2021/10/25 17:29:39;;;;;;;;;;;;;;;;;;5093747;28;19924;-78
2021/10/25 17:32:27;;;;;;;;;;;;;;;;;;5072684;28;19928;-79
2021/10/25 17:35:11;;;;;;;;;;;;;;;;;;5076562;28;20308;-79
2021/10/25 17:37:55;;;;;;;;;;;;;;;;;;5089839;28;19923;-78
2021/10/25 17:40:42;;;;;;;;;;;;;;;;;;5076798;28;19942;-79
2021/10/25 17:43:26;;;;;;;;;;;;;;;;;;5073111;28;19927;-80
2021/10/25 17:46:10;;;;;;;;;;;;;;;;;;5069023;28;19940;-79
2021/10/25 17:48:55;;;;;;;;;;;;;;;;;;5092214;28;19920;-79
2021/10/25 17:51:43;;;;;;;;;;;;;;;;;;5091209;28;19919;-79
2021/10/25 17:54:29;;;;;;;;;;;;;;;;;;5086304;28;19920;-78
2021/10/25 17:57:13;;;;;;;;;;;;;;;;;;5076467;28;19949;-79
2021/10/25 17:59:57;;;;;;;;;;;;;;;;;;5089431;28;19920;-79
2021/10/25 18:02:42;;;;;;;;;;;;;;;;;;5077517;28;19927;-79
2021/10/25 18:05:26;;;;;;;;;;;;;;;;;;5085823;28;19920;-79
2021/10/25 18:08:10;;;;;;;;;;;;;;;;;;5085754;28;19927;-79
2021/10/25 18:10:55;;;;;;;;;;;;;;;;;;5072611;28;19936;-78
2021/10/25 18:13:39;;;;;;;;;;;;;;;;;;5066192;28;19931;-78
2021/10/25 18:16:23;;;;;;;;;;;;;;;;;;5076645;28;20304;-77
2021/10/25 18:19:07;;;;;;;;;;;;;;;;;;5064355;28;19924;-77
2021/10/25 18:21:51;;;;;;;;;;;;;;;;;;5083519;28;19922;-77
2021/10/25 18:24:36;;;;;;;;;;;;;;;;;;5080937;28;19920;-77
2021/10/25 18:27:20;;;;;;;;;;;;;;;;;;5079906;28;19920;-78
2021/10/25 18:30:05;;;;;;;;;;;;;;;;;;5077049;28;19924;-78
2021/10/25 18:32:49;;;;;;;;;;;;;;;;;;5064015;28;19939;-80
2021/10/25 18:35:33;;;;;;;;;;;;;;;;;;5078607;28;19955;-78
2021/10/25 18:38:17;;;;;;;;;;;;;;;;;;5084322;28;19923;-78
2021/10/25 18:41:02;;;;;;;;;;;;;;;;;;5057392;28;19923;-78
2021/10/25 18:43:46;;;;;;;;;;;;;;;;;;5084077;28;19928;-78
2021/10/25 18:46:30;;;;;;;;;;;;;;;;;;5067708;28;20300;-78
2021/10/25 18:49:15;;;;;;;;;;;;;;;;;;5088298;28;19915;-78
2021/10/25 18:51:59;;;;;;;;;;;;;;;;;;5064156;28;19920;-78
2021/10/25 18:54:43;;;;;;;;;;;;;;;;;;5082930;28;20424;-78
2021/10/25 18:57:27;;;;;;;;;;;;;;;;;;5061031;28;19924;-77
2021/10/25 19:00:11;;;;;;;;;;;;;;;;;;5084505;28;19919;-78
2021/10/25 19:02:55;;;;;;;;;;;;;;;;;;5056728;28;20467;-80
2021/10/25 19:05:39;;;;;;;;;;;;;;;;;;5090823;28;19920;-78
2021/10/25 19:08:25;;;;;;;;;;;;;;;;;;5068645;28;19986;-80
2021/10/25 19:11:09;;;;;;;;;;;;;;;;;;5083303;28;19971;-80
2021/10/25 19:14:04;;;;;;;;;;;;;;;;;;5087182;28;19958;-80
2021/10/25 19:16:48;;;;;;;;;;;;;;;;;;5061841;28;19936;-81
2021/10/25 19:19:32;;;;;;;;;;;;;;;;;;5068102;28;19943;-81
2021/10/25 19:22:17;;;;;;;;;;;;;;;;;;5068104;28;19920;-80
2021/10/25 19:25:01;;;;;;;;;;;;;;;;;;5082441;28;20332;-80
2021/10/25 19:27:46;;;;;;;;;;;;;;;;;;5087818;28;19920;-78
2021/10/25 19:30:30;;;;;;;;;;;;;;;;;;5094233;28;19920;-81
2021/10/25 19:33:14;;;;;;;;;;;;;;;;;;5083868;28;20408;-80
2021/10/25 19:35:58;;;;;;;;;;;;;;;;;;5079489;28;19919;-80
2021/10/25 19:38:46;;;;;;;;;;;;;;;;;;5085090;28;19927;-81
2021/10/25 19:41:30;;;;;;;;;;;;;;;;;;5077775;28;19920;-78
2021/10/25 19:44:15;;;;;;;;;;;;;;;;;;5080111;28;19920;-77
2021/10/25 19:46:59;;;;;;;;;;;;;;;;;;5057013;28;19920;-81
2021/10/25 19:49:43;;;;;;;;;;;;;;;;;;5073669;28;19923;-81
2021/10/25 19:52:27;;;;;;;;;;;;;;;;;;5078690;28;20408;-78
2021/10/25 19:55:12;;;;;;;;;;;;;;;;;;5078884;28;19931;-79
2021/10/25 19:57:56;;;;;;;;;;;;;;;;;;5090333;28;19923;-80
2021/10/25 20:00:40;;;;;;;;;;;;;;;;;;5099945;28;19920;-79
2021/10/25 20:03:25;;;;;;;;;;;;;;;;;;5094688;28;19924;-79
2021/10/25 20:06:09;;;;;;;;;;;;;;;;;;5094093;28;20556;-79
2021/10/25 20:08:55;;;;;;;;;;;;;;;;;;5075569;28;19936;-79
2021/10/25 20:11:41;;;;;;;;;;;;;;;;;;5077084;28;19935;-79
2021/10/25 20:14:25;;;;;;;;;;;;;;;;;;5094312;28;19920;-79
2021/10/25 20:17:09;;;;;;;;;;;;;;;;;;5089916;28;19931;-78
2021/10/25 20:19:53;;;;;;;;;;;;;;;;;;5083546;28;19923;-77
2021/10/25 20:22:38;;;;;;;;;;;;;;;;;;5091113;28;19920;-78
2021/10/25 20:25:22;;;;;;;;;;;;;;;;;;5086857;28;19919;-79
2021/10/25 20:28:11;;;;;;;;;;;;;;;;;;5086828;28;19919;-79
2021/10/25 20:30:55;;;;;;;;;;;;;;;;;;5091248;28;19920;-78
2021/10/25 20:33:40;;;;;;;;;;;;;;;;;;5090195;28;19919;-78
2021/10/25 20:36:24;;;;;;;;;;;;;;;;;;5088965;28;20392;-81
2021/10/25 20:39:09;;;;;;;;;;;;;;;;;;5091905;28;19923;-78
2021/10/25 20:41:53;;;;;;;;;;;;;;;;;;5074113;28;19927;-79
2021/10/25 20:44:37;;;;;;;;;;;;;;;;;;5070447;28;19939;-77
2021/10/25 20:47:21;;;;;;;;;;;;;;;;;;5081857;28;19919;-78
2021/10/25 20:50:05;;;;;;;;;;;;;;;;;;5079929;28;20392;-80
2021/10/25 20:52:52;;;;;;;;;;;;;;;;;;5072590;28;20404;-78
2021/10/25 20:55:39;;;;;;;;;;;;;;;;;;5082636;28;19924;-80